Bambari Airport


Codes: FEFM/BBY
Name: Bambari Airport
City: Bambari
Country: Central African Republic
Elevation: 1549 ft.
Wikipedia:

Photos at Bambari Airport


   Photos courtesy of SpottingLog. You can add your own sightings and photos by signing up for a free trial today.



No photos found.

Weather at Bambari Airport


Time (UTC)DescriptionTempratureWindCloud coverageVisibilityPressureHumidity
25-Jun-2024 15:00Light Rain32°C2 mph, N48%10000m1008hPa49%
25-Jun-2024 18:00Light Rain26°C4 mph, S67%10000m1010hPa78%
25-Jun-2024 21:00Light Rain22°C2 mph, S100%10000m1011hPa96%
26-Jun-2024 00:00Overcast Clouds22°C2 mph, SE100%10000m1010hPa96%
26-Jun-2024 03:00Light Rain21°C2 mph, SW100%10000m1010hPa97%
26-Jun-2024 06:00Overcast Clouds23°C2 mph, SW85%10000m1012hPa90%
26-Jun-2024 09:00Scattered Clouds31°C4 mph, SW27%10000m1011hPa53%
26-Jun-2024 12:00Few Clouds34°C7 mph, SW20%10000m1008hPa39%
26-Jun-2024 15:00Overcast Clouds29°C4 mph, SW86%10000m1006hPa57%
26-Jun-2024 18:00Broken Clouds27°C2 mph, SW80%10000m1008hPa64%
26-Jun-2024 21:00Light Rain24°C4 mph, SE76%10000m1010hPa81%
27-Jun-2024 00:00Light Rain23°C2 mph, SE88%10000m1010hPa93%
27-Jun-2024 03:00Light Rain22°C4 mph, NW99%10000m1010hPa96%
27-Jun-2024 06:00Overcast Clouds23°C0 mph, W96%10000m1012hPa93%
27-Jun-2024 09:00Light Rain23°C2 mph, N100%10000m1012hPa93%
27-Jun-2024 12:00Light Rain27°C4 mph, W100%10000m1010hPa72%
27-Jun-2024 15:00Broken Clouds30°C4 mph, W57%10000m1007hPa51%
27-Jun-2024 18:00Broken Clouds24°C4 mph, W61%10000m1010hPa77%
27-Jun-2024 21:00Light Rain22°C2 mph, S75%10000m1012hPa92%
28-Jun-2024 00:00Light Rain22°C2 mph, SW87%10000m1011hPa92%
28-Jun-2024 03:00Overcast Clouds22°C0 mph, SW100%10000m1011hPa90%
28-Jun-2024 06:00Overcast Clouds23°C2 mph, NE100%10000m1013hPa86%
28-Jun-2024 09:00Light Rain23°C2 mph, NE100%10000m1014hPa90%
28-Jun-2024 12:00Light Rain23°C7 mph, N100%10000m1012hPa92%
28-Jun-2024 15:00Overcast Clouds23°C2 mph, N100%10000m1011hPa91%
28-Jun-2024 18:00Overcast Clouds22°C2 mph, N100%10000m1011hPa90%
28-Jun-2024 21:00Overcast Clouds22°C2 mph, S100%10000m1013hPa87%
29-Jun-2024 00:00Overcast Clouds22°C2 mph, SW100%10000m1012hPa86%
29-Jun-2024 03:00Overcast Clouds22°C2 mph, S98%10000m1012hPa85%
29-Jun-2024 06:00Overcast Clouds22°C0 mph, SW99%10000m1013hPa81%
29-Jun-2024 09:00Overcast Clouds26°C2 mph, E100%10000m1014hPa64%
29-Jun-2024 12:00Overcast Clouds28°C2 mph, NE99%10000m1011hPa57%
29-Jun-2024 15:00Overcast Clouds28°C2 mph, NE99%10000m1010hPa58%
29-Jun-2024 18:00Overcast Clouds23°C0 mph, SE94%10000m1010hPa70%
29-Jun-2024 21:00Overcast Clouds22°C0 mph, NE85%10000m1012hPa72%
30-Jun-2024 00:00Overcast Clouds21°C2 mph, SW86%10000m1012hPa75%
30-Jun-2024 03:00Overcast Clouds21°C2 mph, S99%10000m1012hPa79%
30-Jun-2024 06:00Overcast Clouds24°C0 mph, SW95%10000m1013hPa72%
30-Jun-2024 09:00Broken Clouds32°C2 mph, SW55%10000m1012hPa46%
30-Jun-2024 12:00Scattered Clouds35°C4 mph, SW49%10000m1009hPa33%